Time;durP1;ratioP1;P1;durP2;ratioP2;P2;SDS_P1;SDS_P2;PMS_P1;PMS_P2;Temp;Humidity;BMP_temperature;BMP_pressure;BME280_temperature;BME280_humidity;BME280_pressure;Samples;Min_cycle;Max_cycle;Signal;HPM_P1;HPM_P2
2022/01/23 00:02:29;;;;;;;26.73;10.65;;;5.80;52.10;;;;;;6317355;28;20102;-70
2022/01/23 00:05:34;;;;;;;27.58;9.77;;;5.80;52.30;;;;;;6299277;28;20042;-69
2022/01/23 00:08:35;;;;;;;24.45;9.95;;;5.80;52.40;;;;;;6282661;28;20052;-69
2022/01/23 00:11:43;;;;;;;23.73;8.55;;;5.70;52.30;;;;;;6299266;28;20206;-70
2022/01/23 00:18:06;;;;;;;19.45;8.38;;;5.70;52.60;;;;;;6316996;28;20682;-70
2022/01/23 00:21:08;;;;;;;21.38;8.07;;;5.70;52.70;;;;;;6282207;28;20025;-69
2022/01/23 00:30:33;;;;;;;18.35;8.27;;;5.60;52.90;;;;;;6299069;28;20025;-70
2022/01/23 00:33:34;;;;;;;21.50;8.50;;;5.50;53.00;;;;;;6298617;28;20508;-70
2022/01/23 00:36:35;;;;;;;20.38;8.32;;;5.50;53.10;;;;;;6311921;28;20017;-70
2022/01/23 00:39:36;;;;;;;22.25;7.78;;;5.50;53.10;;;;;;6310873;28;20023;-70
2022/01/23 00:42:38;;;;;;;20.98;8.77;;;5.50;53.10;;;;;;6302164;28;20120;-70
2022/01/23 00:45:50;;;;;;;20.08;8.52;;;5.50;53.10;;;;;;6286999;28;20040;-69
2022/01/23 00:51:58;;;;;;;24.87;8.53;;;5.50;53.10;;;;;;6302510;28;20064;-69
2022/01/23 00:55:00;;;;;;;33.78;8.48;;;5.50;53.10;;;;;;6303659;28;20068;-69
2022/01/23 00:58:01;;;;;;;19.33;8.32;;;5.50;53.20;;;;;;6321376;28;20020;-70
2022/01/23 01:01:02;;;;;;;21.85;7.60;;;5.50;53.20;;;;;;6321241;28;20043;-70
2022/01/23 01:04:04;;;;;;;19.10;8.48;;;5.50;53.30;;;;;;6321204;28;20036;-70
2022/01/23 01:07:05;;;;;;;23.42;8.43;;;5.50;53.30;;;;;;6320818;28;20032;-71
2022/01/23 01:10:12;;;;;;;22.83;7.72;;;5.50;53.30;;;;;;6319688;28;20036;-69
2022/01/23 01:13:14;;;;;;;17.13;7.53;;;5.50;53.30;;;;;;6303273;28;20024;-70
2022/01/23 01:36:21;;;;;;;34.78;9.80;;;5.40;53.70;;;;;;6194153;28;20042;-69
2022/01/23 01:39:26;;;;;;;34.17;11.90;;;5.30;53.80;;;;;;6172028;28;20039;-69
2022/01/23 01:42:28;;;;;;;22.70;9.75;;;5.30;53.90;;;;;;6193735;28;20122;-70
2022/01/23 01:45:31;;;;;;;27.20;9.05;;;5.20;54.00;;;;;;6193136;28;20022;-69
2022/01/23 01:48:59;;;;;;;23.38;9.65;;;5.10;54.20;;;;;;6191820;28;20039;-69
2022/01/23 01:52:02;;;;;;;26.75;8.80;;;5.10;54.30;;;;;;6193023;28;20033;-69
2022/01/23 01:55:07;;;;;;;16.88;8.35;;;5.00;54.40;;;;;;6192757;28;20041;-70
2022/01/23 02:08:32;;;;;;;28.65;10.82;;;4.90;54.60;;;;;;6188121;28;20031;-70
2022/01/23 02:12:03;;;;;;;36.20;9.32;;;4.80;54.70;;;;;;6207267;28;20596;-70
2022/01/23 02:55:11;;;;;;;31.73;10.68;;;4.40;56.40;;;;;;6318801;28;20338;-69
2022/01/23 02:58:16;;;;;;;23.90;10.10;;;4.40;56.40;;;;;;6300755;28;20027;-69
2022/01/23 03:01:19;;;;;;;20.20;8.13;;;4.40;56.90;;;;;;6284124;28;20101;-69
2022/01/23 03:04:50;;;;;;;31.52;9.75;;;4.50;56.30;;;;;;6316931;28;20061;-69
2022/01/23 03:08:24;;;;;;;21.98;8.60;;;4.50;56.30;;;;;;6285624;28;20143;-69
2022/01/23 03:30:27;;;;;;;18.23;9.32;;;4.40;56.40;;;;;;6300101;28;20471;-69
2022/01/23 03:33:28;;;;;;;23.50;9.93;;;4.40;56.30;;;;;;6297850;28;20036;-70
2022/01/23 03:36:29;;;;;;;25.55;8.75;;;4.50;56.30;;;;;;6300000;28;20097;-69
2022/01/23 03:39:30;;;;;;;28.15;9.35;;;4.50;56.30;;;;;;6310867;28;20071;-68
2022/01/23 03:42:34;;;;;;;24.10;8.45;;;4.50;56.30;;;;;;6317893;28;20028;-69
2022/01/23 03:51:44;;;;;;;24.45;9.25;;;4.40;56.50;;;;;;6298953;28;20089;-69
2022/01/23 03:54:46;;;;;;;19.75;8.43;;;4.30;56.60;;;;;;6296408;28;20032;-70
2022/01/23 03:57:47;;;;;;;30.23;10.48;;;4.30;56.70;;;;;;6283399;28;20551;-69
2022/01/23 04:00:49;;;;;;;30.27;9.35;;;4.30;56.80;;;;;;6283110;28;20024;-69
2022/01/23 04:03:52;;;;;;;23.88;10.88;;;4.20;56.90;;;;;;6283029;28;20050;-70
2022/01/23 04:06:53;;;;;;;22.67;9.95;;;4.20;57.00;;;;;;6299372;28;20036;-70
2022/01/23 04:09:55;;;;;;;21.25;8.60;;;4.20;57.10;;;;;;6300634;28;20054;-69
2022/01/23 04:13:09;;;;;;;29.17;10.65;;;4.20;57.20;;;;;;6300057;28;20032;-69
2022/01/23 04:32:48;;;;;;;22.58;7.53;;;4.10;57.40;;;;;;6300390;28;20028;-70
2022/01/23 04:45:58;;;;;;;19.58;7.32;;;4.10;57.60;;;;;;6303911;28;20417;-70
2022/01/23 05:02:47;;;;;;;18.35;7.40;;;4.10;57.40;;;;;;6303875;28;20067;-70
2022/01/23 05:06:03;;;;;;;23.45;7.60;;;4.10;57.50;;;;;;6321642;28;20039;-71
2022/01/23 05:09:19;;;;;;;20.17;8.38;;;4.00;57.60;;;;;;6288747;28;20035;-69
2022/01/23 05:12:31;;;;;;;20.83;7.43;;;4.00;57.80;;;;;;6303381;28;20036;-69
2022/01/23 05:15:34;;;;;;;20.63;9.30;;;3.90;57.90;;;;;;6303093;28;20029;-69
2022/01/23 05:18:36;;;;;;;22.90;9.40;;;3.90;57.90;;;;;;6286716;28;20031;-70
2022/01/23 05:24:47;;;;;;;22.77;8.65;;;3.80;58.10;;;;;;6321217;28;20079;-70
2022/01/23 05:27:52;;;;;;;27.35;9.20;;;3.80;58.20;;;;;;6285317;28;20637;-71
2022/01/23 05:30:53;;;;;;;29.20;11.07;;;3.80;58.20;;;;;;6303367;28;20635;-70
2022/01/23 05:33:54;;;;;;;23.08;10.95;;;3.80;58.20;;;;;;6321057;28;20036;-70
2022/01/23 05:36:55;;;;;;;23.65;10.45;;;3.90;58.30;;;;;;6302085;28;20353;-70
2022/01/23 05:39:58;;;;;;;22.60;8.88;;;3.90;58.20;;;;;;6282889;28;20373;-70
2022/01/23 05:42:59;;;;;;;22.98;8.68;;;3.90;58.20;;;;;;6286423;28;20032;-70
2022/01/23 05:46:00;;;;;;;25.25;10.45;;;3.90;58.20;;;;;;6282358;28;20066;-70
2022/01/23 05:49:22;;;;;;;19.33;9.63;;;3.90;58.20;;;;;;6305482;28;20123;-70
2022/01/23 05:52:43;;;;;;;32.63;11.02;;;3.90;58.20;;;;;;6217248;28;20041;-70
2022/01/23 05:56:16;;;;;;;20.02;9.70;;;3.80;58.30;;;;;;6201525;28;20045;-70
2022/01/23 05:59:23;;;;;;;25.15;9.25;;;3.90;58.50;;;;;;6217949;28;20030;-71
2022/01/23 06:02:24;;;;;;;14.38;7.88;;;3.90;58.40;;;;;;6217977;28;20360;-70
2022/01/23 06:05:25;;;;;;;23.17;9.38;;;3.90;58.30;;;;;;6201393;28;20030;-70
2022/01/23 06:08:32;;;;;;;21.33;9.90;;;3.90;58.30;;;;;;6216895;28;20037;-70
2022/01/23 06:11:33;;;;;;;25.17;11.52;;;3.80;58.20;;;;;;6201044;28;20033;-70
2022/01/23 06:14:34;;;;;;;16.63;8.88;;;3.80;58.30;;;;;;6217497;28;20117;-70
2022/01/23 06:17:36;;;;;;;17.10;8.32;;;3.80;58.40;;;;;;6217160;28;20037;-70
2022/01/23 06:20:55;;;;;;;14.43;7.50;;;3.80;58.00;;;;;;6217640;28;20029;-70
2022/01/23 06:27:40;;;;;;;28.73;9.02;;;3.80;58.50;;;;;;6217508;28;20477;-70
2022/01/23 06:30:41;;;;;;;16.27;7.85;;;3.70;58.50;;;;;;6272338;28;20063;-70
2022/01/23 06:33:42;;;;;;;23.77;7.20;;;3.70;58.60;;;;;;6319579;28;20048;-70
2022/01/23 06:36:45;;;;;;;19.65;7.40;;;3.70;58.60;;;;;;6319604;28;20031;-71
2022/01/23 06:39:46;;;;;;;11.73;6.72;;;3.70;58.60;;;;;;6301178;28;20050;-69
2022/01/23 06:42:52;;;;;;;23.75;9.57;;;3.70;58.70;;;;;;6285636;28;20035;-69
2022/01/23 06:45:59;;;;;;;17.13;7.50;;;3.70;58.60;;;;;;6286081;28;20032;-69
2022/01/23 06:49:01;;;;;;;15.63;6.07;;;3.70;58.50;;;;;;6301335;28;20067;-71
2022/01/23 06:52:03;;;;;;;17.50;7.97;;;3.70;58.60;;;;;;6300177;28;20108;-70
2022/01/23 06:55:05;;;;;;;16.17;7.45;;;3.70;58.50;;;;;;6284380;28;20035;-70
2022/01/23 06:58:06;;;;;;;14.75;5.93;;;3.70;58.60;;;;;;6300568;28;20115;-70
2022/01/23 07:01:07;;;;;;;21.02;7.75;;;3.70;58.60;;;;;;6284292;28;20024;-71
2022/01/23 07:04:32;;;;;;;29.25;7.32;;;3.70;58.60;;;;;;6216194;28;20091;-70
2022/01/23 07:07:43;;;;;;;13.38;7.15;;;3.70;58.60;;;;;;6216045;28;20052;-71
2022/01/23 07:10:57;;;;;;;21.05;7.22;;;3.70;58.60;;;;;;6211232;28;20034;-69
2022/01/23 07:14:19;;;;;;;19.77;6.45;;;3.70;58.60;;;;;;6144098;29;20045;-69
2022/01/23 07:17:39;;;;;;;20.70;7.60;;;3.70;58.50;;;;;;6144269;29;20027;-71
2022/01/23 07:20:53;;;;;;;18.13;6.53;;;3.70;58.50;;;;;;6143698;29;20028;-70
2022/01/23 07:23:59;;;;;;;12.27;6.55;;;3.70;58.50;;;;;;6143648;28;20222;-73
2022/01/23 07:27:06;;;;;;;35.25;7.38;;;3.70;58.40;;;;;;6143767;29;20429;-70
2022/01/23 07:30:20;;;;;;;18.60;7.50;;;3.70;58.50;;;;;;6127926;29;20457;-70
2022/01/23 07:33:21;;;;;;;10.68;5.70;;;3.80;58.50;;;;;;6143852;29;20544;-70
2022/01/23 07:36:22;;;;;;;23.70;7.90;;;3.80;58.40;;;;;;6143708;28;20041;-69
2022/01/23 07:39:23;;;;;;;15.77;6.32;;;3.90;58.30;;;;;;6127545;29;20035;-70
2022/01/23 07:42:25;;;;;;;24.23;8.38;;;3.80;58.20;;;;;;6187613;28;20049;-70
2022/01/23 07:45:35;;;;;;;25.23;8.38;;;3.90;58.20;;;;;;6215476;28;20037;-72
2022/01/23 07:48:56;;;;;;;17.40;7.57;;;3.90;58.20;;;;;;6215435;28;20735;-70
2022/01/23 07:52:17;;;;;;;14.68;7.15;;;3.90;58.30;;;;;;6304076;28;20036;-70
2022/01/23 07:55:32;;;;;;;18.52;7.55;;;3.90;58.30;;;;;;6299688;28;20067;-70
2022/01/23 07:59:11;;;;;;;16.92;7.03;;;4.00;58.20;;;;;;6215647;28;20042;-70
2022/01/23 08:02:31;;;;;;;35.45;7.90;;;3.70;57.90;;;;;;6216238;28;20081;-70
2022/01/23 08:05:51;;;;;;;26.92;7.25;;;4.00;58.00;;;;;;6201657;28;20069;-70
2022/01/23 08:09:11;;;;;;;14.85;6.60;;;4.00;58.10;;;;;;6201684;28;20030;-70
2022/01/23 08:12:15;;;;;;;27.95;7.93;;;4.00;58.50;;;;;;6209273;28;20030;-69
2022/01/23 08:15:16;;;;;;;87.88;11.20;;;4.00;58.10;;;;;;6211519;28;20512;-70
2022/01/23 08:18:17;;;;;;;34.45;7.28;;;4.00;58.10;;;;;;6215196;28;20113;-70
2022/01/23 08:21:18;;;;;;;25.83;8.75;;;4.10;58.60;;;;;;6198909;28;20053;-70
2022/01/23 08:24:19;;;;;;;16.05;8.30;;;4.20;57.90;;;;;;6198060;28;20049;-69
2022/01/23 08:27:21;;;;;;;20.77;9.10;;;4.20;57.90;;;;;;6214819;28;20123;-71
2022/01/23 08:30:23;;;;;;;28.80;9.40;;;4.20;57.80;;;;;;6263419;28;20036;-69
2022/01/23 08:33:24;;;;;;;22.25;8.07;;;4.20;57.80;;;;;;6282706;28;20028;-69
2022/01/23 08:36:26;;;;;;;21.38;9.23;;;4.30;57.70;;;;;;6317329;28;20346;-72
2022/01/23 08:39:28;;;;;;;16.05;7.03;;;4.30;57.70;;;;;;6313216;28;20025;-70
2022/01/23 08:42:29;;;;;;;15.35;8.15;;;4.20;57.70;;;;;;6316970;28;20468;-69
2022/01/23 08:45:31;;;;;;;23.00;9.75;;;4.20;57.60;;;;;;6299156;28;20035;-69
2022/01/23 08:48:32;;;;;;;22.45;8.45;;;4.10;57.60;;;;;;6299143;28;20058;-72
2022/01/23 08:51:33;;;;;;;21.17;9.05;;;4.20;57.80;;;;;;6282638;28;20047;-71
2022/01/23 08:54:34;;;;;;;19.98;9.10;;;4.20;57.80;;;;;;6315896;28;20074;-70
2022/01/23 08:57:36;;;;;;;30.00;10.10;;;4.30;57.90;;;;;;6299237;28;20020;-71
2022/01/23 09:00:37;;;;;;;33.80;8.48;;;4.40;57.80;;;;;;6299013;28;20473;-70
2022/01/23 09:03:39;;;;;;;20.95;10.60;;;4.50;57.70;;;;;;6319751;28;20029;-70
2022/01/23 09:06:40;;;;;;;38.40;9.32;;;4.50;57.60;;;;;;6321170;28;20024;-71
2022/01/23 09:09:41;;;;;;;19.73;9.35;;;4.60;57.40;;;;;;6314813;28;20024;-69
2022/01/23 09:12:55;;;;;;;23.50;10.73;;;4.60;57.30;;;;;;6303296;28;20024;-71
2022/01/23 09:15:56;;;;;;;27.10;10.90;;;4.70;57.30;;;;;;6321012;28;20039;-70
2022/01/23 09:18:58;;;;;;;27.50;9.40;;;4.70;57.20;;;;;;6303126;28;20101;-70
2022/01/23 09:21:59;;;;;;;18.42;7.32;;;4.80;57.10;;;;;;6303252;28;20028;-70
2022/01/23 09:25:01;;;;;;;21.58;8.63;;;4.80;56.90;;;;;;6285913;28;20116;-70
2022/01/23 09:28:12;;;;;;;20.70;9.27;;;4.80;56.90;;;;;;6302992;28;20564;-70
2022/01/23 09:31:27;;;;;;;14.82;6.85;;;4.80;56.80;;;;;;6303202;28;20089;-70
2022/01/23 09:34:33;;;;;;;25.48;8.55;;;4.90;56.80;;;;;;6320722;28;20034;-71
2022/01/23 09:37:34;;;;;;;23.48;9.57;;;4.90;56.50;;;;;;6317650;28;20024;-71
2022/01/23 09:40:40;;;;;;;17.85;8.48;;;5.00;56.50;;;;;;6316358;28;20039;-69
2022/01/23 09:43:43;;;;;;;18.50;8.05;;;5.00;56.60;;;;;;6302838;28;20519;-70
2022/01/23 09:46:46;;;;;;;18.88;9.15;;;5.10;56.40;;;;;;6320378;28;20590;-72
2022/01/23 09:49:48;;;;;;;25.50;10.52;;;5.20;56.30;;;;;;6320194;28;20074;-70
2022/01/23 09:52:53;;;;;;;21.25;8.95;;;5.30;56.20;;;;;;6300909;28;20059;-71
2022/01/23 09:56:04;;;;;;;24.17;9.93;;;5.30;56.10;;;;;;6302536;28;20039;-70
2022/01/23 09:59:05;;;;;;;20.48;7.55;;;5.40;56.00;;;;;;6320321;28;20020;-72
2022/01/23 10:02:08;;;;;;;24.63;10.50;;;5.60;55.80;;;;;;6302304;28;20028;-71
2022/01/23 10:05:09;;;;;;;19.45;8.40;;;5.60;55.40;;;;;;6319868;28;20032;-71
2022/01/23 10:08:11;;;;;;;21.60;10.15;;;5.60;55.30;;;;;;6319601;28;20025;-70
2022/01/23 10:11:14;;;;;;;21.95;8.65;;;5.70;55.40;;;;;;6319859;28;20024;-70
2022/01/23 10:14:17;;;;;;;19.50;8.85;;;5.70;55.30;;;;;;6282920;28;20484;-71
2022/01/23 10:17:19;;;;;;;19.95;9.13;;;5.90;55.30;;;;;;6297722;28;20123;-71
2022/01/23 10:20:20;;;;;;;31.90;12.13;;;6.10;54.80;;;;;;6301607;28;20024;-73
2022/01/23 10:23:21;;;;;;;24.13;8.60;;;6.30;54.40;;;;;;6319138;28;20068;-70
2022/01/23 10:26:50;;;;;;;27.27;11.20;;;6.70;54.00;;;;;;6301756;28;20028;-75
2022/01/23 10:29:51;;;;;;;31.92;11.63;;;6.90;53.30;;;;;;6284728;28;20031;-71
2022/01/23 10:32:58;;;;;;;23.98;10.60;;;7.10;52.90;;;;;;6319117;28;20054;-71
2022/01/23 10:36:15;;;;;;;33.22;9.95;;;7.30;52.80;;;;;;6319253;28;20035;-71
2022/01/23 10:39:18;;;;;;;18.25;9.52;;;7.50;52.50;;;;;;6295387;28;20101;-70
2022/01/23 10:42:35;;;;;;;22.00;8.57;;;7.70;52.00;;;;;;6319512;28;20041;-71
2022/01/23 10:48:59;;;;;;;14.98;6.97;;;8.10;51.10;;;;;;6319195;28;20184;-70
2022/01/23 10:52:00;;;;;;;20.15;8.13;;;8.30;50.10;;;;;;6301245;28;20114;-71
2022/01/23 10:55:23;;;;;;;16.13;7.65;;;8.40;49.40;;;;;;6318612;28;20070;-70
2022/01/23 10:58:26;;;;;;;16.55;7.57;;;8.50;49.20;;;;;;6301067;28;20024;-69
2022/01/23 11:01:30;;;;;;;21.23;8.75;;;8.60;48.80;;;;;;6318533;28;20125;-71
2022/01/23 11:04:54;;;;;;;28.40;8.18;;;8.80;48.40;;;;;;6318079;28;20020;-72
2022/01/23 11:07:55;;;;;;;29.95;9.82;;;9.00;48.20;;;;;;6316583;28;20634;-70
2022/01/23 11:10:58;;;;;;;31.27;9.07;;;9.30;47.70;;;;;;6318308;28;20632;-70
2022/01/23 11:17:48;;;;;;;28.55;10.05;;;10.00;46.10;;;;;;6318246;28;20035;-70
2022/01/23 11:20:50;;;;;;;17.77;8.20;;;10.30;45.20;;;;;;6318121;28;20496;-70
2022/01/23 11:23:57;;;;;;;20.38;8.40;;;10.60;44.80;;;;;;6317373;28;20471;-70
2022/01/23 11:27:02;;;;;;;17.77;8.38;;;10.80;43.80;;;;;;6317773;28;20028;-70
2022/01/23 11:30:12;;;;;;;20.30;7.63;;;11.20;43.00;;;;;;6299294;28;20660;-71
2022/01/23 11:33:17;;;;;;;17.42;8.02;;;11.60;42.10;;;;;;6297905;28;20024;-71
2022/01/23 11:36:20;;;;;;;19.10;8.60;;;11.90;41.20;;;;;;6299845;28;20034;-71
2022/01/23 11:39:37;;;;;;;25.05;8.43;;;12.30;40.20;;;;;;6317474;28;20028;-71
2022/01/23 11:56:01;;;;;;;23.20;10.10;;;13.10;37.90;;;;;;6299469;28;20648;-70
2022/01/23 11:59:23;;;;;;;26.38;9.98;;;13.50;37.60;;;;;;6299663;28;20032;-72
2022/01/23 12:02:32;;;;;;;22.33;10.55;;;13.90;37.20;;;;;;6299565;28;20032;-71
2022/01/23 12:05:35;;;;;;;23.02;10.70;;;14.40;36.50;;;;;;6279679;28;20035;-70
2022/01/23 12:08:38;;;;;;;15.73;7.53;;;15.10;36.40;;;;;;6299571;28;20086;-71
2022/01/23 12:11:48;;;;;;;14.80;7.25;;;15.20;34.80;;;;;;6317290;28;20057;-71
2022/01/23 12:17:51;;;;;;;13.48;6.53;;;13.70;36.10;;;;;;6317292;28;20095;-71
2022/01/23 12:20:53;;;;;;;17.98;8.20;;;13.00;36.80;;;;;;6317021;28;20624;-71
2022/01/23 12:24:05;;;;;;;12.43;6.38;;;12.40;37.70;;;;;;6316749;28;20473;-71
2022/01/23 12:27:23;;;;;;;23.80;8.13;;;11.90;38.60;;;;;;6282797;28;20043;-69
2022/01/23 12:30:28;;;;;;;15.55;6.72;;;11.40;39.20;;;;;;6299716;28;20028;-70
2022/01/23 12:33:46;;;;;;;25.38;6.95;;;11.00;39.80;;;;;;6282753;28;20765;-71
2022/01/23 12:36:55;;;;;;;10.13;5.85;;;10.60;40.70;;;;;;6282477;28;20556;-69
2022/01/23 12:40:28;;;;;;;19.77;7.68;;;10.40;41.00;;;;;;6321759;28;20020;-71
2022/01/23 12:43:37;;;;;;;16.58;7.00;;;10.20;41.60;;;;;;6304212;28;20021;-70
2022/01/23 12:46:41;;;;;;;18.08;7.28;;;10.00;42.00;;;;;;6287478;28;20043;-70
2022/01/23 12:49:51;;;;;;;20.10;7.70;;;9.90;42.40;;;;;;6297399;28;20063;-70
2022/01/23 12:52:52;;;;;;;15.40;7.35;;;9.70;42.80;;;;;;6303198;28;20466;-71
2022/01/23 12:56:09;;;;;;;27.65;7.30;;;9.60;43.10;;;;;;6322262;28;20108;-70
2022/01/23 12:59:14;;;;;;;20.13;6.93;;;9.60;43.50;;;;;;6304092;28;20242;-70
2022/01/23 13:02:18;;;;;;;16.00;6.63;;;9.50;43.80;;;;;;6303997;28;20036;-71
2022/01/23 13:05:19;;;;;;;15.85;7.78;;;9.40;44.00;;;;;;6303655;28;20074;-70
2022/01/23 13:08:29;;;;;;;18.58;7.13;;;9.40;44.20;;;;;;6298321;28;20032;-70
2022/01/23 13:11:54;;;;;;;17.92;8.02;;;9.30;44.40;;;;;;6303466;28;20039;-70
2022/01/23 13:31:15;;;;;;;16.77;7.22;;;9.30;45.10;;;;;;6321068;28;20036;-70
2022/01/23 13:34:26;;;;;;;23.83;9.43;;;9.20;45.20;;;;;;6286615;28;20032;-70
2022/01/23 13:37:30;;;;;;;20.35;7.85;;;9.30;45.40;;;;;;6320668;28;20105;-70
2022/01/23 13:40:39;;;;;;;19.92;7.38;;;9.30;45.40;;;;;;6296711;28;20519;-71
2022/01/23 14:00:27;;;;;;;19.77;8.23;;;9.50;45.20;;;;;;6302413;28;20646;-70
2022/01/23 14:03:29;;;;;;;27.65;9.13;;;9.60;45.20;;;;;;6320003;28;20020;-70
2022/01/23 14:06:30;;;;;;;17.92;8.00;;;9.60;45.30;;;;;;6284999;28;20115;-70
2022/01/23 14:09:43;;;;;;;19.13;7.75;;;9.60;45.90;;;;;;6299586;28;20024;-70
2022/01/23 14:12:49;;;;;;;18.42;7.47;;;9.60;45.30;;;;;;6320104;28;20033;-70
2022/01/23 14:15:53;;;;;;;21.50;9.07;;;9.60;45.30;;;;;;6285076;28;20392;-70
2022/01/23 14:19:18;;;;;;;20.50;9.27;;;9.70;45.30;;;;;;6301967;28;20063;-70
2022/01/23 14:22:27;;;;;;;21.73;8.05;;;9.70;45.30;;;;;;6295939;28;20082;-70
2022/01/23 14:25:28;;;;;;;13.75;6.30;;;9.80;45.20;;;;;;6319022;28;20048;-72
2022/01/23 14:28:41;;;;;;;16.67;7.78;;;9.80;45.20;;;;;;6301164;28;20070;-70
2022/01/23 14:31:43;;;;;;;21.27;7.38;;;9.80;45.20;;;;;;6300836;28;20059;-71
2022/01/23 14:34:45;;;;;;;16.13;7.18;;;9.90;45.20;;;;;;6301274;28;20110;-71
2022/01/23 14:37:48;;;;;;;22.75;7.65;;;9.90;45.10;;;;;;6291123;28;20029;-70
2022/01/23 14:41:02;;;;;;;17.25;7.60;;;9.90;45.00;;;;;;6299387;28;20094;-70
2022/01/23 14:44:18;;;;;;;15.50;7.18;;;9.90;45.00;;;;;;6301031;28;20028;-70
2022/01/23 14:47:19;;;;;;;17.38;7.53;;;9.90;45.00;;;;;;6300707;28;20460;-70
2022/01/23 14:50:24;;;;;;;23.95;8.50;;;9.90;44.80;;;;;;6301173;28;20121;-70
2022/01/23 14:53:25;;;;;;;16.17;7.55;;;9.80;44.90;;;;;;6283479;28;20449;-70
2022/01/23 14:56:29;;;;;;;17.05;6.78;;;9.80;45.00;;;;;;6300866;28;20038;-71
2022/01/23 14:59:33;;;;;;;14.05;7.65;;;9.80;45.10;;;;;;6299967;28;20495;-70
2022/01/23 15:02:34;;;;;;;15.50;7.25;;;9.80;45.10;;;;;;6300129;28;20150;-70
2022/01/23 15:05:40;;;;;;;17.58;7.88;;;9.90;45.20;;;;;;6300470;28;20032;-70
2022/01/23 15:08:43;;;;;;;14.77;6.88;;;9.90;45.20;;;;;;6317142;28;20067;-70
2022/01/23 15:11:46;;;;;;;16.85;7.50;;;9.90;45.30;;;;;;6299125;28;20048;-71
2022/01/23 15:14:47;;;;;;;23.30;8.20;;;9.90;45.30;;;;;;6300352;28;20081;-70
2022/01/23 15:17:48;;;;;;;21.20;7.53;;;9.90;45.30;;;;;;6300073;28;20051;-70
2022/01/23 15:20:49;;;;;;;18.73;9.02;;;9.90;45.30;;;;;;6299154;28;20095;-70
2022/01/23 15:23:55;;;;;;;19.25;8.15;;;9.90;45.30;;;;;;6291212;28;20048;-70
2022/01/23 15:26:57;;;;;;;17.35;8.07;;;9.90;45.40;;;;;;6292748;28;20025;-70
2022/01/23 15:29:58;;;;;;;19.58;8.77;;;9.90;45.50;;;;;;6292069;28;20042;-70
2022/01/23 15:33:01;;;;;;;19.80;8.90;;;9.90;45.60;;;;;;6292157;28;20397;-70
2022/01/23 15:36:02;;;;;;;20.80;8.27;;;9.90;45.60;;;;;;6287376;28;20111;-70
2022/01/23 15:39:06;;;;;;;18.73;8.55;;;9.90;45.70;;;;;;6287355;28;20059;-71
2022/01/23 15:42:07;;;;;;;17.25;7.80;;;9.90;45.80;;;;;;6291514;28;20034;-70
2022/01/23 15:45:10;;;;;;;23.13;9.00;;;9.80;45.80;;;;;;6291564;28;20571;-71
2022/01/23 15:48:11;;;;;;;23.67;9.73;;;9.80;46.00;;;;;;6285957;28;20086;-71
2022/01/23 15:51:12;;;;;;;21.98;10.73;;;9.80;46.10;;;;;;6290798;28;20116;-70
2022/01/23 15:54:16;;;;;;;20.58;9.98;;;9.80;46.30;;;;;;6288722;28;20028;-71
2022/01/23 15:57:17;;;;;;;19.63;10.48;;;9.70;47.00;;;;;;6290817;28;20452;-71
2022/01/23 16:00:19;;;;;;;30.60;11.60;;;9.70;46.50;;;;;;6272696;28;20109;-69
2022/01/23 16:03:24;;;;;;;18.90;9.40;;;9.70;46.50;;;;;;6292192;28;20016;-72
2022/01/23 16:06:25;;;;;;;19.55;8.63;;;9.70;46.60;;;;;;6292005;28;20058;-70
2022/01/23 16:09:26;;;;;;;22.50;9.15;;;9.70;46.70;;;;;;6289174;28;20066;-70
2022/01/23 16:12:28;;;;;;;18.65;8.05;;;9.70;46.80;;;;;;6290188;28;20116;-71
2022/01/23 16:15:30;;;;;;;23.67;8.63;;;9.70;46.80;;;;;;6290964;28;20067;-71
2022/01/23 16:18:31;;;;;;;20.23;9.82;;;9.60;46.80;;;;;;6290875;28;20021;-70
2022/01/23 16:21:32;;;;;;;16.65;8.15;;;9.60;46.90;;;;;;6291982;28;20024;-70
2022/01/23 16:24:33;;;;;;;26.77;9.02;;;9.60;47.00;;;;;;6273749;28;20063;-70
2022/01/23 16:27:35;;;;;;;24.10;10.70;;;9.60;47.00;;;;;;6285313;28;20436;-71
2022/01/23 16:30:51;;;;;;;19.88;9.43;;;9.50;47.10;;;;;;6290639;28;20033;-70
2022/01/23 16:33:53;;;;;;;19.35;9.23;;;9.60;47.80;;;;;;6290912;28;20386;-71
2022/01/23 16:36:55;;;;;;;19.13;8.07;;;9.50;47.10;;;;;;6290574;28;20056;-70
2022/01/23 16:39:57;;;;;;;24.75;8.68;;;9.50;47.10;;;;;;6270957;28;20613;-70
2022/01/23 16:42:58;;;;;;;23.17;9.00;;;9.50;47.00;;;;;;6290369;28;20032;-71
2022/01/23 16:46:01;;;;;;;26.50;10.38;;;9.40;47.00;;;;;;6290834;28;20035;-72
2022/01/23 16:49:02;;;;;;;21.70;9.38;;;9.40;47.10;;;;;;6291979;28;20063;-71
2022/01/23 16:52:04;;;;;;;22.75;9.27;;;9.40;47.10;;;;;;6290845;28;20036;-71
2022/01/23 16:55:06;;;;;;;24.98;10.10;;;9.40;47.20;;;;;;6290357;28;20051;-71
2022/01/23 16:58:07;;;;;;;23.10;8.90;;;9.40;47.30;;;;;;6291786;28;20021;-71
2022/01/23 17:01:08;;;;;;;21.42;10.07;;;9.30;47.40;;;;;;6273822;28;20043;-71
2022/01/23 17:04:09;;;;;;;20.27;8.98;;;9.30;47.60;;;;;;6290594;28;20361;-70
2022/01/23 17:07:10;;;;;;;23.55;9.02;;;9.30;47.80;;;;;;6290608;28;20036;-71
2022/01/23 17:10:11;;;;;;;26.25;9.00;;;9.20;47.90;;;;;;6289883;28;20020;-70
2022/01/23 17:13:13;;;;;;;21.35;10.05;;;9.20;48.10;;;;;;6291357;28;20021;-70
2022/01/23 17:16:15;;;;;;;37.13;11.10;;;9.20;48.20;;;;;;6273427;28;20036;-70
2022/01/23 17:19:16;;;;;;;18.75;8.43;;;9.10;48.30;;;;;;6290078;28;20029;-71
2022/01/23 17:22:18;;;;;;;19.55;8.30;;;9.10;48.30;;;;;;6289881;28;20112;-70
2022/01/23 17:25:19;;;;;;;26.77;9.60;;;9.00;48.30;;;;;;6293676;28;20481;-70
2022/01/23 17:28:21;;;;;;;23.02;10.07;;;9.10;48.30;;;;;;6294646;28;20025;-70
2022/01/23 17:31:22;;;;;;;28.60;10.13;;;9.00;48.20;;;;;;6295431;28;20461;-70
2022/01/23 17:34:23;;;;;;;29.63;9.63;;;9.00;48.20;;;;;;6295293;28;20143;-71
2022/01/23 17:37:25;;;;;;;21.83;8.05;;;9.00;48.10;;;;;;6274748;28;20059;-70
2022/01/23 17:40:26;;;;;;;19.27;8.40;;;8.90;47.90;;;;;;6294661;28;20017;-70
2022/01/23 17:43:27;;;;;;;28.80;10.07;;;8.90;47.90;;;;;;6294960;28;20024;-71
2022/01/23 17:46:32;;;;;;;22.92;10.43;;;8.90;47.80;;;;;;6293826;28;20043;-72
2022/01/23 17:49:41;;;;;;;18.58;9.13;;;8.80;47.60;;;;;;6293700;28;20074;-70
2022/01/23 17:52:43;;;;;;;34.65;11.07;;;8.80;47.60;;;;;;6294299;28;20099;-70
2022/01/23 17:55:45;;;;;;;26.25;11.00;;;8.70;47.80;;;;;;6294514;28;20548;-71
2022/01/23 17:58:48;;;;;;;23.13;10.65;;;8.70;48.20;;;;;;6294005;28;20123;-70
2022/01/23 18:01:49;;;;;;;23.20;10.02;;;8.60;48.50;;;;;;6298827;28;20130;-70
2022/01/23 18:04:50;;;;;;;32.72;11.32;;;8.50;48.80;;;;;;6293000;28;20421;-70
2022/01/23 18:07:51;;;;;;;26.55;11.70;;;8.50;49.10;;;;;;6291726;28;20063;-70
2022/01/23 18:10:52;;;;;;;29.77;10.95;;;8.50;49.20;;;;;;6293346;28;20491;-71
2022/01/23 18:13:56;;;;;;;25.23;11.27;;;8.40;49.30;;;;;;6276619;28;20033;-71
2022/01/23 18:16:57;;;;;;;19.30;9.13;;;8.40;49.40;;;;;;6292321;28;20423;-70
2022/01/23 18:19:58;;;;;;;26.77;9.88;;;8.40;49.40;;;;;;6293362;28;20024;-70
2022/01/23 18:23:00;;;;;;;25.80;9.55;;;8.40;49.60;;;;;;6295590;28;20021;-70
2022/01/23 18:26:01;;;;;;;21.75;9.45;;;8.40;49.60;;;;;;6301310;28;20028;-70
2022/01/23 18:29:05;;;;;;;19.38;8.90;;;8.30;49.60;;;;;;6319223;28;20039;-70
2022/01/23 18:32:09;;;;;;;21.88;9.48;;;8.30;49.50;;;;;;6301306;28;20028;-70
2022/01/23 18:35:10;;;;;;;19.88;9.23;;;8.20;49.30;;;;;;6318454;28;20043;-70
2022/01/23 18:38:11;;;;;;;28.25;9.63;;;8.20;49.30;;;;;;6295301;28;20025;-70
2022/01/23 18:41:13;;;;;;;21.58;9.55;;;8.10;49.30;;;;;;6301066;28;20209;-70
2022/01/23 18:44:14;;;;;;;25.17;9.88;;;8.10;49.30;;;;;;6301172;28;20035;-70
2022/01/23 18:47:15;;;;;;;21.52;9.02;;;8.10;49.40;;;;;;6318569;28;20020;-71
2022/01/23 18:50:16;;;;;;;22.83;9.15;;;8.00;49.40;;;;;;6283747;28;20495;-70
2022/01/23 18:53:25;;;;;;;36.50;13.95;;;8.00;49.50;;;;;;6300486;28;20039;-70
2022/01/23 18:56:29;;;;;;;33.45;13.65;;;7.90;49.70;;;;;;6283777;28;20429;-70
2022/01/23 18:59:33;;;;;;;45.17;19.60;;;7.90;50.00;;;;;;6318389;28;20111;-71
2022/01/23 19:02:43;;;;;;;40.05;17.02;;;7.80;50.20;;;;;;6318677;28;20028;-72
2022/01/23 19:05:50;;;;;;;41.42;15.18;;;7.80;50.30;;;;;;6317802;28;20050;-71
2022/01/23 19:08:57;;;;;;;32.20;15.30;;;7.80;50.50;;;;;;6300033;28;20060;-70
2022/01/23 19:12:02;;;;;;;34.00;15.98;;;7.80;50.70;;;;;;6284108;28;20039;-71
2022/01/23 19:15:04;;;;;;;38.85;16.35;;;7.70;50.70;;;;;;6318628;28;20036;-70
2022/01/23 19:18:05;;;;;;;31.13;14.48;;;7.60;50.90;;;;;;6317320;28;20020;-70
2022/01/23 19:21:06;;;;;;;34.05;15.18;;;7.60;51.00;;;;;;6317976;28;20330;-71
2022/01/23 19:24:08;;;;;;;39.58;16.65;;;7.60;51.20;;;;;;6299605;28;20052;-71
2022/01/23 19:27:14;;;;;;;37.47;16.00;;;7.50;51.30;;;;;;6300133;28;20118;-70
2022/01/23 19:30:18;;;;;;;32.05;14.63;;;7.50;51.30;;;;;;6294605;28;20450;-70
2022/01/23 19:33:19;;;;;;;30.50;13.70;;;7.50;51.40;;;;;;6316543;28;20233;-69